< < Back
Terminal Aerodrome Forecast


Current Version              Previous Versions:   1  2  3  4  5  6  7  8  9  

Terminal Aerodrome Forecast

930
FTUS44 KMOB 221700
TAFPNS
TAF
KPNS 221737Z 2218/2318 13006KT P6SM VCSH SCT003 BKN025
     FM230000 18009KT 5SM BR SCT007 BKN010
      TEMPO 2300/2304 3SM BR BKN007
     FM230400 17006KT 1SM BR OVC003 PROB30 2312/2318 3SM TSRA BR
      SCT003 BKN010CB=



Latest METAR

641
SAUS70 KWBC 230200 RRL
MTRPNS
METAR KPNS 230153Z 12003KT 2SM BR BKN008 16/16 A2979 RMK AO2 SLP090
T01610161 $


USA.gov is the U.S. government's official web portal to all federal, state and local government web resources and services.